createdAt,value
2018-11-07T00:02:23.801Z,99.90
2018-11-07T00:04:51.072Z,99.90
2018-11-07T00:07:18.238Z,99.90
2018-11-07T00:09:52.309Z,99.90
2018-11-07T00:12:19.596Z,99.90
2018-11-07T00:14:46.794Z,99.90
2018-11-07T00:17:13.981Z,99.40
2018-11-07T00:19:41.265Z,99.30
2018-11-07T00:22:08.438Z,99.70
2018-11-07T00:24:35.689Z,99.90
2018-11-07T00:27:03.020Z,99.90
2018-11-07T00:29:30.210Z,99.90
2018-11-07T00:31:57.368Z,99.90
2018-11-07T00:34:24.569Z,99.90
2018-11-07T00:36:51.844Z,99.90
2018-11-07T00:39:19.040Z,99.90
2018-11-07T00:41:46.205Z,99.90
2018-11-07T00:44:13.406Z,99.90
2018-11-07T00:46:40.570Z,99.60
2018-11-07T00:49:07.788Z,99.90
2018-11-07T00:51:35.053Z,99.00
2018-11-07T00:54:02.217Z,99.70
2018-11-07T00:56:29.459Z,99.80
2018-11-07T00:58:56.630Z,99.90
2018-11-07T01:01:23.796Z,99.90
2018-11-07T01:03:51.400Z,99.90
2018-11-07T01:06:18.568Z,99.90
2018-11-07T01:08:45.730Z,99.90
2018-11-07T01:11:13.053Z,99.90
2018-11-07T01:13:40.240Z,99.90
2018-11-07T01:16:07.419Z,99.90
2018-11-07T01:18:34.653Z,99.90
2018-11-07T01:21:01.814Z,99.90
2018-11-07T01:23:29.160Z,99.90
2018-11-07T01:25:56.323Z,99.90
2018-11-07T01:28:23.562Z,99.90
2018-11-07T01:30:50.667Z,99.90
2018-11-07T01:33:17.952Z,99.90
2018-11-07T01:35:45.132Z,99.90
2018-11-07T01:38:12.304Z,99.90
2018-11-07T01:40:39.475Z,99.90
2018-11-07T01:43:06.659Z,99.90
2018-11-07T01:45:33.895Z,99.90
2018-11-07T01:48:01.047Z,99.90
2018-11-07T01:50:28.228Z,99.90
2018-11-07T01:52:55.400Z,99.90
2018-11-07T01:55:22.574Z,99.90
2018-11-07T01:57:49.753Z,99.90
2018-11-07T02:00:16.965Z,99.90
2018-11-07T02:02:44.130Z,99.90
2018-11-07T02:05:11.596Z,99.90
2018-11-07T02:07:39.027Z,99.90
2018-11-07T02:10:06.911Z,99.90
2018-11-07T02:12:34.072Z,99.90
2018-11-07T02:15:01.521Z,99.90
2018-11-07T02:17:28.693Z,99.90
2018-11-07T02:19:56.091Z,99.90
2018-11-07T02:22:23.287Z,99.90
2018-11-07T02:24:50.452Z,99.90
2018-11-07T02:27:17.612Z,99.90
2018-11-07T02:29:44.852Z,99.90
2018-11-07T02:32:12.018Z,99.90
2018-11-07T02:34:39.195Z,99.90
2018-11-07T02:37:06.444Z,99.90
2018-11-07T02:39:33.520Z,99.90
2018-11-07T02:42:00.732Z,99.90
2018-11-07T02:44:27.884Z,99.90
2018-11-07T02:46:55.047Z,99.90
2018-11-07T02:49:22.216Z,99.90
2018-11-07T02:51:49.391Z,99.90
2018-11-07T02:54:16.547Z,99.90
2018-11-07T02:56:43.708Z,99.90
2018-11-07T02:59:10.881Z,99.90
2018-11-07T03:01:38.041Z,99.90
2018-11-07T03:04:05.251Z,99.90
2018-11-07T03:06:32.425Z,99.90
2018-11-07T03:08:59.577Z,99.90
2018-11-07T03:11:26.739Z,99.90
2018-11-07T03:13:53.947Z,99.90
2018-11-07T03:16:21.118Z,99.90
2018-11-07T03:18:48.300Z,99.90
2018-11-07T03:21:15.486Z,99.90
2018-11-07T03:23:42.672Z,99.90
2018-11-07T03:26:09.933Z,99.90
2018-11-07T03:28:37.144Z,99.90
2018-11-07T03:31:04.369Z,99.90
2018-11-07T03:33:31.540Z,99.90
2018-11-07T03:35:58.712Z,99.90
2018-11-07T03:38:25.867Z,99.90
2018-11-07T03:40:53.054Z,99.90
2018-11-07T03:43:20.195Z,99.90
2018-11-07T03:45:53.017Z,99.90
2018-11-07T03:48:20.284Z,99.90
2018-11-07T03:50:47.464Z,99.90
2018-11-07T03:53:14.674Z,99.90
2018-11-07T03:55:41.783Z,99.90
2018-11-07T03:58:08.949Z,99.90
2018-11-07T04:00:36.176Z,99.80
2018-11-07T04:03:03.358Z,99.20
2018-11-07T04:05:30.531Z,98.50
2018-11-07T04:07:57.715Z,97.80
2018-11-07T04:10:24.884Z,97.70
2018-11-07T04:12:52.038Z,98.20
2018-11-07T04:15:19.252Z,98.20
2018-11-07T04:17:46.433Z,99.10
2018-11-07T04:20:13.602Z,98.60
2018-11-07T04:22:40.838Z,99.50
2018-11-07T04:25:08.769Z,98.90
2018-11-07T04:27:35.952Z,99.30
2018-11-07T04:30:04.904Z,99.50
2018-11-07T04:32:32.073Z,99.80
2018-11-07T04:37:33.279Z,99.90
2018-11-07T04:40:00.445Z,99.90
2018-11-07T04:42:27.617Z,99.90
2018-11-07T04:44:54.791Z,99.20
2018-11-07T04:47:28.809Z,99.10
2018-11-07T04:49:55.955Z,99.00
2018-11-07T04:52:23.141Z,98.60
2018-11-07T04:54:50.305Z,98.70
2018-11-07T04:57:17.471Z,98.60
2018-11-07T04:59:44.663Z,98.00
2018-11-07T05:02:11.828Z,98.10
2018-11-07T05:04:38.992Z,97.60
2018-11-07T05:07:06.165Z,96.90
2018-11-07T05:09:33.319Z,98.10
2018-11-07T05:12:00.504Z,98.10
2018-11-07T05:14:27.801Z,98.70
2018-11-07T05:16:54.995Z,98.90
2018-11-07T05:19:22.173Z,99.50
2018-11-07T05:21:49.416Z,99.90
2018-11-07T05:24:16.586Z,99.90
2018-11-07T05:26:43.752Z,99.90
2018-11-07T05:29:10.994Z,99.90
2018-11-07T05:31:38.152Z,99.90
2018-11-07T05:34:05.352Z,99.90
2018-11-07T05:36:32.520Z,99.90
2018-11-07T05:38:59.712Z,99.90
2018-11-07T05:41:26.885Z,99.90
2018-11-07T05:43:54.050Z,99.90
2018-11-07T05:46:21.203Z,99.90
2018-11-07T05:48:48.568Z,99.90
2018-11-07T05:51:15.692Z,99.90
2018-11-07T05:53:42.866Z,99.90
2018-11-07T05:56:10.049Z,99.90
2018-11-07T05:58:37.216Z,99.90
2018-11-07T06:01:04.604Z,99.90
2018-11-07T06:03:31.776Z,99.90
2018-11-07T06:05:58.923Z,99.90
2018-11-07T06:08:26.088Z,99.90
2018-11-07T06:10:53.263Z,99.90
2018-11-07T06:13:20.455Z,99.90
2018-11-07T06:15:47.659Z,99.90
2018-11-07T06:25:17.244Z,99.90
2018-11-07T06:27:44.395Z,99.90
2018-11-07T06:30:12.428Z,99.90
2018-11-07T06:32:39.684Z,99.90
2018-11-07T06:35:07.952Z,99.90
2018-11-07T06:37:35.119Z,99.90
2018-11-07T06:40:02.446Z,99.90
2018-11-07T06:42:30.227Z,99.90
2018-11-07T06:44:57.487Z,99.90
2018-11-07T06:47:24.752Z,99.90
2018-11-07T06:49:51.923Z,99.90
2018-11-07T06:52:19.141Z,99.90
2018-11-07T06:54:46.432Z,99.90
2018-11-07T06:57:13.695Z,99.70
2018-11-07T06:59:40.908Z,98.80
2018-11-07T07:02:08.161Z,99.30
2018-11-07T07:04:35.413Z,99.90
2018-11-07T07:07:02.588Z,99.90
2018-11-07T07:09:29.811Z,99.90
2018-11-07T07:11:57.064Z,99.90
2018-11-07T07:14:24.349Z,99.80
2018-11-07T07:16:51.580Z,99.90
2018-11-07T07:19:18.824Z,99.90
2018-11-07T07:21:46.112Z,99.90
2018-11-07T07:24:13.316Z,99.80
2018-11-07T07:26:40.606Z,99.90
2018-11-07T07:29:08.056Z,99.60
2018-11-07T07:31:35.307Z,99.50
2018-11-07T07:34:02.535Z,99.70
2018-11-07T07:36:29.808Z,99.50
2018-11-07T07:38:56.975Z,99.80
2018-11-07T07:41:24.144Z,99.70
2018-11-07T07:43:51.338Z,99.90
2018-11-07T07:46:18.513Z,99.90
2018-11-07T07:48:45.701Z,99.90
2018-11-07T07:51:12.872Z,99.90
2018-11-07T07:53:40.037Z,99.50
2018-11-07T07:56:07.212Z,99.30
2018-11-07T07:58:34.401Z,99.90
2018-11-07T08:01:01.625Z,99.90
2018-11-07T08:03:28.853Z,99.90
2018-11-07T08:05:56.013Z,99.40
2018-11-07T08:08:23.164Z,99.90
2018-11-07T08:10:50.420Z,99.40
2018-11-07T08:16:33.583Z,99.30
2018-11-07T08:19:00.894Z,99.10
2018-11-07T08:21:28.099Z,99.00
2018-11-07T08:23:55.309Z,99.30
2018-11-07T08:26:22.528Z,99.60
2018-11-07T08:28:50.181Z,99.70
2018-11-07T08:31:17.465Z,99.90
2018-11-07T08:33:44.674Z,99.90
2018-11-07T08:36:12.100Z,99.90
2018-11-07T08:38:39.257Z,99.90
2018-11-07T08:41:06.438Z,99.90
2018-11-07T08:43:33.884Z,99.90
2018-11-07T08:46:01.121Z,99.90
2018-11-07T08:48:28.279Z,99.90
2018-11-07T08:50:55.455Z,99.90
2018-11-07T08:53:22.614Z,99.90
2018-11-07T08:55:49.791Z,99.90
2018-11-07T08:58:16.986Z,99.90
2018-11-07T09:00:44.168Z,99.90
2018-11-07T09:03:11.333Z,99.90
2018-11-07T09:05:38.548Z,99.90
2018-11-07T09:08:05.719Z,99.90
2018-11-07T09:10:32.886Z,99.90
2018-11-07T09:13:00.070Z,99.90
2018-11-07T09:15:27.244Z,99.90
2018-11-07T09:18:01.092Z,99.90
2018-11-07T09:20:28.254Z,99.90
2018-11-07T09:22:55.420Z,99.90
2018-11-07T09:25:22.586Z,99.90
2018-11-07T09:27:49.774Z,99.90
2018-11-07T09:30:20.066Z,99.90
2018-11-07T09:32:47.278Z,99.90
2018-11-07T09:35:14.656Z,99.90
2018-11-07T09:37:41.982Z,99.90
2018-11-07T09:40:11.323Z,99.90
2018-11-07T09:42:42.325Z,99.90
2018-11-07T09:45:11.255Z,99.90
2018-11-07T09:47:39.040Z,99.90
2018-11-07T09:50:07.152Z,99.90
2018-11-07T09:52:34.548Z,99.00
2018-11-07T09:55:08.594Z,98.90
2018-11-07T09:57:35.792Z,98.40
2018-11-07T10:00:03.364Z,98.40
2018-11-07T10:02:30.619Z,98.40
2018-11-07T10:04:57.810Z,98.20
2018-11-07T10:07:24.998Z,98.00
2018-11-07T10:09:52.174Z,97.60
2018-11-07T10:12:19.372Z,97.50
2018-11-07T10:14:46.530Z,97.70
2018-11-07T10:17:13.736Z,96.70
2018-11-07T10:19:40.909Z,96.80
2018-11-07T10:22:08.156Z,96.30
2018-11-07T10:24:35.326Z,96.40
2018-11-07T10:27:02.647Z,96.20
2018-11-07T10:29:30.011Z,96.00
2018-11-07T10:31:56.864Z,95.50
2018-11-07T10:34:24.035Z,95.40
2018-11-07T10:36:51.192Z,95.70
2018-11-07T10:39:18.348Z,95.20
2018-11-07T10:44:19.528Z,94.70
2018-11-07T10:46:46.660Z,93.80
2018-11-07T10:49:13.855Z,93.00
2018-11-07T10:51:41.068Z,92.60
2018-11-07T10:54:08.226Z,92.60
2018-11-07T10:56:35.413Z,92.30
2018-11-07T10:59:02.590Z,91.50
2018-11-07T11:01:35.582Z,91.60
2018-11-07T11:04:02.759Z,91.70
2018-11-07T11:06:29.939Z,91.90
2018-11-07T11:08:57.093Z,92.00
2018-11-07T11:11:24.353Z,92.00
2018-11-07T11:13:51.464Z,91.30
2018-11-07T11:16:18.620Z,90.90
2018-11-07T11:18:52.734Z,91.30
2018-11-07T11:21:19.864Z,91.40
2018-11-07T11:23:47.028Z,91.10
2018-11-07T11:26:14.176Z,90.60
2018-11-07T11:28:41.344Z,90.60
2018-11-07T11:31:08.520Z,90.40
2018-11-07T11:33:35.717Z,90.00
2018-11-07T11:36:02.882Z,90.40
2018-11-07T11:38:30.062Z,90.20
2018-11-07T11:40:57.279Z,89.80
2018-11-07T11:43:24.418Z,89.30
2018-11-07T11:45:51.594Z,88.90
2018-11-07T11:48:18.786Z,87.80
2018-11-07T11:50:45.940Z,85.60
2018-11-07T11:53:13.121Z,85.00
2018-11-07T11:55:40.339Z,85.00
2018-11-07T11:58:07.521Z,82.80
2018-11-07T12:00:34.774Z,82.70
2018-11-07T12:03:01.917Z,82.20
2018-11-07T12:05:29.104Z,83.00
2018-11-07T12:07:56.272Z,82.30
2018-11-07T12:10:24.660Z,81.30
2018-11-07T12:12:53.034Z,83.00
2018-11-07T12:15:21.381Z,82.10
2018-11-07T12:17:48.612Z,80.70
2018-11-07T12:20:15.925Z,79.00
2018-11-07T12:22:43.154Z,79.30
2018-11-07T12:25:11.453Z,79.00
2018-11-07T12:27:39.082Z,78.80
2018-11-07T12:30:12.008Z,77.20
2018-11-07T12:32:39.444Z,77.70
2018-11-07T12:35:06.659Z,77.70
2018-11-07T12:37:33.812Z,76.90
2018-11-07T12:40:01.010Z,76.30
2018-11-07T12:42:28.216Z,76.40
2018-11-07T12:44:55.621Z,76.80
2018-11-07T12:47:22.792Z,75.40
2018-11-07T12:49:50.011Z,74.60
2018-11-07T12:52:17.196Z,75.10
2018-11-07T12:54:44.366Z,74.60
2018-11-07T12:57:11.540Z,74.30
2018-11-07T12:59:38.928Z,74.70
2018-11-07T13:02:06.108Z,73.30
2018-11-07T13:04:33.314Z,73.80
2018-11-07T13:07:00.450Z,73.80
2018-11-07T13:09:27.626Z,72.90
2018-11-07T13:11:54.812Z,74.30
2018-11-07T13:14:21.984Z,74.10
2018-11-07T13:16:49.144Z,73.30
2018-11-07T13:19:16.334Z,73.80
2018-11-07T13:21:43.543Z,73.80
2018-11-07T13:24:10.738Z,74.00
2018-11-07T13:26:37.912Z,73.10
2018-11-07T13:29:05.112Z,74.00
2018-11-07T13:31:32.268Z,73.50
2018-11-07T13:33:59.459Z,72.40
2018-11-07T13:36:26.666Z,73.10
2018-11-07T13:38:54.217Z,72.40
2018-11-07T13:41:21.028Z,71.80
2018-11-07T13:43:48.198Z,71.40
2018-11-07T13:46:15.371Z,71.30
2018-11-07T13:48:42.536Z,70.50
2018-11-07T13:51:09.718Z,70.70
2018-11-07T13:53:36.882Z,70.30
2018-11-07T13:56:04.109Z,70.50
2018-11-07T13:58:31.294Z,71.30
2018-11-07T14:00:58.468Z,71.00
2018-11-07T14:03:25.710Z,71.40
2018-11-07T14:05:52.948Z,71.20
2018-11-07T14:08:20.372Z,71.00
2018-11-07T14:10:47.676Z,70.40
2018-11-07T14:13:14.845Z,71.20
2018-11-07T14:15:42.075Z,71.10
2018-11-07T14:18:09.267Z,71.40
2018-11-07T14:20:36.461Z,71.70
2018-11-07T14:23:03.630Z,71.80
2018-11-07T14:25:30.842Z,72.10
2018-11-07T14:27:58.129Z,72.00
2018-11-07T14:30:25.251Z,72.50
2018-11-07T14:32:54.729Z,72.40
2018-11-07T14:35:22.216Z,73.00
2018-11-07T14:37:49.536Z,73.80
2018-11-07T14:40:16.746Z,73.90
2018-11-07T14:42:43.914Z,74.80
2018-11-07T14:45:11.820Z,75.30
2018-11-07T14:47:39.498Z,76.00
2018-11-07T14:50:07.674Z,76.50
2018-11-07T14:52:34.852Z,76.80
2018-11-07T14:55:02.081Z,77.30
2018-11-07T14:57:29.382Z,78.00
2018-11-07T14:59:56.544Z,78.40
2018-11-07T15:02:23.748Z,78.90
2018-11-07T15:04:50.876Z,79.30
2018-11-07T15:07:18.032Z,79.30
2018-11-07T15:09:45.203Z,80.40
2018-11-07T15:12:12.442Z,79.70
2018-11-07T15:14:39.683Z,80.50
2018-11-07T15:17:07.028Z,80.80
2018-11-07T15:19:34.221Z,81.50
2018-11-07T15:23:26.114Z,81.30
2018-11-07T15:25:53.392Z,81.20
2018-11-07T15:28:20.628Z,82.00
2018-11-07T15:30:47.897Z,82.40
2018-11-07T15:33:15.129Z,81.90
2018-11-07T15:35:42.312Z,82.20
2018-11-07T15:38:09.574Z,82.30
2018-11-07T15:40:36.802Z,82.60
2018-11-07T15:43:04.072Z,83.00
2018-11-07T15:45:32.080Z,83.10
2018-11-07T15:48:06.449Z,83.00
2018-11-07T15:50:39.423Z,82.90
2018-11-07T15:53:06.680Z,83.10
2018-11-07T15:55:33.963Z,83.00
2018-11-07T15:58:01.180Z,83.00
2018-11-07T16:00:28.444Z,83.30
2018-11-07T16:02:55.600Z,83.60
2018-11-07T16:05:22.840Z,84.20
2018-11-07T16:07:50.112Z,84.80
2018-11-07T16:10:17.359Z,84.90
2018-11-07T16:12:44.509Z,85.50
2018-11-07T16:15:13.302Z,85.60
2018-11-07T16:17:40.984Z,85.70
2018-11-07T16:20:11.765Z,85.80
2018-11-07T16:22:39.542Z,85.40
2018-11-07T16:25:07.313Z,85.10
2018-11-07T16:31:05.766Z,85.10
2018-11-07T16:36:31.473Z,85.30
2018-11-07T16:38:58.709Z,85.20
2018-11-07T16:41:26.095Z,85.30
2018-11-07T16:47:24.517Z,85.80
2018-11-07T16:49:51.726Z,86.60
2018-11-07T16:52:20.046Z,86.40
2018-11-07T16:54:47.192Z,86.20
2018-11-07T16:57:14.340Z,86.00
2018-11-07T16:59:41.522Z,85.70
2018-11-07T17:02:08.808Z,86.40
2018-11-07T17:04:36.054Z,86.50
2018-11-07T17:07:03.333Z,87.00
2018-11-07T17:09:30.514Z,87.60
2018-11-07T17:11:57.684Z,88.10
2018-11-07T17:14:24.864Z,88.70
2018-11-07T17:16:52.110Z,89.30
2018-11-07T17:19:19.281Z,90.10
2018-11-07T17:21:46.452Z,90.50
2018-11-07T17:24:13.713Z,90.70
2018-11-07T17:26:40.806Z,90.80
2018-11-07T17:29:07.942Z,91.00
2018-11-07T17:31:35.144Z,91.00
2018-11-07T17:34:02.274Z,91.00
2018-11-07T17:36:29.439Z,91.00
2018-11-07T17:38:56.598Z,90.90
2018-11-07T17:41:23.816Z,91.20
2018-11-07T17:43:50.993Z,91.40
2018-11-07T17:46:18.144Z,91.80
2018-11-07T17:48:45.318Z,92.50
2018-11-07T17:51:12.476Z,93.00
2018-11-07T17:53:39.686Z,93.70
2018-11-07T17:56:06.908Z,94.30
2018-11-07T17:58:34.068Z,95.00
2018-11-07T18:01:01.326Z,95.20
2018-11-07T18:03:28.484Z,95.60
2018-11-07T18:05:55.670Z,95.80
2018-11-07T18:08:22.844Z,96.20
2018-11-07T18:10:50.008Z,96.30
2018-11-07T18:13:17.284Z,96.80
2018-11-07T18:15:44.467Z,97.00
2018-11-07T18:18:11.637Z,97.20
2018-11-07T18:20:38.829Z,97.50
2018-11-07T18:23:06.105Z,97.40
2018-11-07T18:25:33.269Z,97.80
2018-11-07T18:28:00.454Z,97.60
2018-11-07T18:30:27.654Z,96.60
2018-11-07T18:32:54.874Z,96.90
2018-11-07T18:38:59.340Z,96.90
2018-11-07T18:41:26.509Z,96.70
2018-11-07T18:43:53.672Z,96.60
2018-11-07T18:46:20.884Z,96.70
2018-11-07T18:48:48.092Z,96.90
2018-11-07T18:51:15.260Z,96.90
2018-11-07T18:53:42.441Z,96.90
2018-11-07T18:56:09.711Z,96.80
2018-11-07T18:58:37.063Z,97.20
2018-11-07T19:01:04.361Z,98.00
2018-11-07T19:03:31.650Z,98.40
2018-11-07T19:05:58.823Z,98.50
2018-11-07T19:08:26.074Z,98.10
2018-11-07T19:10:53.324Z,98.60
2018-11-07T19:13:20.511Z,98.50
2018-11-07T19:15:47.682Z,98.20
2018-11-07T19:18:14.859Z,98.40
2018-11-07T19:20:42.134Z,98.70
2018-11-07T19:23:09.381Z,98.90
2018-11-07T19:25:36.647Z,99.20
2018-11-07T19:28:03.934Z,99.60
2018-11-07T19:30:31.128Z,99.70
2018-11-07T19:32:58.477Z,99.90
2018-11-07T19:35:25.650Z,99.90
2018-11-07T19:37:52.903Z,99.90
2018-11-07T19:40:21.784Z,99.90
2018-11-07T19:42:48.946Z,99.90
2018-11-07T19:45:17.380Z,99.90
2018-11-07T19:47:44.572Z,99.90
2018-11-07T19:50:13.020Z,99.90
2018-11-07T19:52:40.184Z,99.90
2018-11-07T19:55:09.791Z,99.90
2018-11-07T19:57:36.982Z,99.90
2018-11-07T20:00:06.196Z,99.90
2018-11-07T20:02:33.414Z,99.90
2018-11-07T20:05:00.672Z,99.90
2018-11-07T20:07:27.896Z,99.90
2018-11-07T20:09:55.068Z,99.90
2018-11-07T20:12:22.334Z,99.90
2018-11-07T20:14:49.511Z,99.90
2018-11-07T20:17:16.705Z,99.90
2018-11-07T20:19:43.969Z,99.90
2018-11-07T20:22:11.144Z,99.90
2018-11-07T20:24:38.296Z,99.90
2018-11-07T20:27:05.560Z,99.90
2018-11-07T20:29:32.814Z,99.90
2018-11-07T20:31:59.984Z,99.90
2018-11-07T20:37:25.320Z,99.90
2018-11-07T20:39:52.513Z,99.90
2018-11-07T20:42:19.737Z,99.90
2018-11-07T20:44:47.062Z,99.90
2018-11-07T20:47:14.259Z,99.90
2018-11-07T20:49:41.431Z,99.90
2018-11-07T20:52:08.690Z,99.90
2018-11-07T20:54:35.886Z,99.90
2018-11-07T20:57:03.052Z,99.90
2018-11-07T20:59:30.500Z,99.90
2018-11-07T21:01:57.751Z,99.90
2018-11-07T21:04:24.828Z,99.90
2018-11-07T21:06:52.007Z,99.90
2018-11-07T21:09:19.161Z,99.90
2018-11-07T21:11:46.368Z,99.90
2018-11-07T21:14:13.520Z,99.90
2018-11-07T21:16:40.700Z,99.90
2018-11-07T21:19:07.951Z,99.90
2018-11-07T21:21:35.188Z,99.90
2018-11-07T21:24:02.470Z,99.90
2018-11-07T21:26:29.663Z,99.90
2018-11-07T21:28:56.846Z,99.90
2018-11-07T21:31:24.169Z,99.90
2018-11-07T21:33:51.320Z,99.90
2018-11-07T21:36:18.488Z,99.90
2018-11-07T21:38:45.665Z,99.90
2018-11-07T21:41:12.902Z,99.90
2018-11-07T21:43:40.649Z,99.90
2018-11-07T21:46:07.814Z,99.90
2018-11-07T21:48:34.994Z,99.90
2018-11-07T21:51:02.157Z,99.90
2018-11-07T21:56:03.459Z,99.90
2018-11-07T21:58:30.626Z,99.90
2018-11-07T22:00:57.820Z,99.90
2018-11-07T22:03:25.028Z,99.90
2018-11-07T22:05:52.279Z,99.90
2018-11-07T22:08:19.544Z,99.90
2018-11-07T22:10:46.700Z,99.90
2018-11-07T22:13:13.970Z,99.90
2018-11-07T22:15:41.221Z,99.90
2018-11-07T22:18:08.380Z,99.90
2018-11-07T22:20:35.540Z,99.90
2018-11-07T22:23:02.704Z,99.90
2018-11-07T22:25:29.887Z,99.90
2018-11-07T22:27:57.150Z,99.90
2018-11-07T22:30:24.333Z,99.90
2018-11-07T22:32:51.513Z,99.90
2018-11-07T22:35:18.699Z,99.90
2018-11-07T22:37:46.239Z,99.90
2018-11-07T22:40:14.620Z,99.90
2018-11-07T22:42:42.073Z,99.90
2018-11-07T22:45:10.256Z,99.90
2018-11-07T22:47:37.714Z,99.90
2018-11-07T22:50:06.091Z,99.90
2018-11-07T22:52:33.278Z,99.90
2018-11-07T22:55:00.471Z,99.90
2018-11-07T22:57:27.646Z,99.90
2018-11-07T22:59:54.831Z,99.90
2018-11-07T23:02:22.039Z,99.90
2018-11-07T23:04:49.214Z,99.90
2018-11-07T23:07:16.378Z,99.90
2018-11-07T23:09:43.566Z,99.90
2018-11-07T23:12:10.730Z,99.90
2018-11-07T23:14:37.970Z,99.90
2018-11-07T23:17:05.182Z,99.90
2018-11-07T23:19:32.466Z,99.90
2018-11-07T23:21:59.554Z,99.90
2018-11-07T23:24:26.740Z,99.90
2018-11-07T23:26:53.914Z,99.90
2018-11-07T23:29:21.086Z,99.90
2018-11-07T23:31:48.265Z,99.90
2018-11-07T23:34:15.447Z,99.90
2018-11-07T23:36:42.682Z,99.90
2018-11-07T23:39:10.137Z,99.90
2018-11-07T23:41:37.309Z,99.90
2018-11-07T23:44:04.492Z,99.90
2018-11-07T23:46:31.704Z,99.90
2018-11-07T23:48:58.904Z,99.90
2018-11-07T23:51:26.074Z,99.90
2018-11-07T23:53:53.278Z,99.90
2018-11-07T23:56:20.424Z,99.90
2018-11-07T23:58:47.728Z,99.90
